KBFW

Silver Bay Municipal Airport

Silver Bay, Minnesota, USA
METAR KBFW 170846Z AUTO 00000KT 10SM CLR M12/M13 A3025 RMK AO2
Observed Flight Rules
Nov-17 @ 08:46 UTC (13 minutes ago) Visual Flight Rules
Visibility Clouds
10 miles
  • Clear skies
Temperatures Readings
Current -12°C / 10°F
Dewpoint -13°C / 9°F
Humidity 92%
Altimeter 30.25" Hg
Pressure 1024 hPa
Elevation 331
METAR KBFW 170846Z AUTO 00000KT 10SM CLR M12/M13 A3025 RMK AO2
Observed Flight Rules
Nov-17 @ 08:46 UTC
(13 minutes ago)
VFR
Clouds
  • Clear skies
Temperature Dewpoint
-12°C / 10°F -13°C / 9°F
Humidity Altimeter Pressure
92% 30.25" Hg 1024 hPa